createdAt,value
2023-01-17T00:00:07.335Z,4.00
2023-01-17T00:02:35.655Z,4.05
2023-01-17T00:05:23.013Z,4.07
2023-01-17T00:08:20.216Z,4.03
2023-01-17T00:10:48.857Z,4.04
2023-01-17T00:13:17.506Z,4.06
2023-01-17T00:15:46.043Z,4.08
2023-01-17T00:18:14.174Z,4.09
2023-01-17T00:21:01.173Z,4.14
2023-01-17T00:23:47.537Z,4.14
2023-01-17T00:26:20.257Z,4.13
2023-01-17T00:28:49.528Z,4.12
2023-01-17T00:31:17.893Z,4.13
2023-01-17T00:33:46.472Z,4.00
2023-01-17T00:36:14.593Z,3.78
2023-01-17T00:38:42.586Z,3.77
2023-01-17T00:41:13.183Z,3.93
2023-01-17T00:44:00.960Z,3.99
2023-01-17T00:46:47.569Z,3.97
2023-01-17T00:49:34.131Z,3.98
2023-01-17T00:52:20.813Z,4.00
2023-01-17T00:55:07.299Z,4.01
2023-01-17T00:57:53.823Z,4.09
2023-01-17T01:00:41.085Z,4.08
2023-01-17T01:03:30.533Z,4.10
2023-01-17T01:06:17.544Z,4.16
2023-01-17T01:09:04.418Z,4.16
2023-01-17T01:11:51.011Z,4.19
2023-01-17T01:14:37.893Z,4.22
2023-01-17T01:17:24.429Z,4.22
2023-01-17T01:20:10.911Z,4.21
2023-01-17T01:22:57.548Z,4.21
2023-01-17T01:25:43.949Z,4.13
2023-01-17T01:28:32.475Z,4.04
2023-01-17T01:31:23.567Z,3.91
2023-01-17T01:33:53.307Z,3.92
2023-01-17T01:36:22.058Z,3.90
2023-01-17T01:38:50.631Z,3.82
2023-01-17T01:41:19.065Z,3.84
2023-01-17T01:43:52.474Z,3.89
2023-01-17T01:46:25.939Z,3.94
2023-01-17T01:49:02.626Z,3.95
2023-01-17T01:51:39.180Z,3.96
2023-01-17T01:54:21.909Z,3.97
2023-01-17T01:56:54.679Z,3.97
2023-01-17T01:59:23.777Z,3.95
2023-01-17T02:01:56.408Z,3.96
2023-01-17T02:04:26.821Z,3.95
2023-01-17T02:07:22.500Z,3.96
2023-01-17T02:09:50.582Z,3.94
2023-01-17T02:12:20.397Z,3.95
2023-01-17T02:14:48.988Z,3.95
2023-01-17T02:17:28.969Z,3.96
2023-01-17T02:20:09.050Z,3.93
2023-01-17T02:23:14.441Z,3.94
2023-01-17T02:25:59.980Z,3.95
2023-01-17T02:28:40.259Z,3.97
2023-01-17T02:31:27.181Z,3.98
2023-01-17T02:34:07.406Z,3.99
2023-01-17T02:37:03.444Z,4.01
2023-01-17T02:39:49.174Z,4.01
2023-01-17T02:42:20.472Z,3.98
2023-01-17T02:44:48.845Z,3.96
2023-01-17T02:47:30.507Z,3.95
2023-01-17T02:50:15.559Z,3.97
2023-01-17T02:53:04.049Z,3.97
2023-01-17T02:55:38.460Z,3.97
2023-01-17T02:58:25.012Z,3.96
2023-01-17T03:01:17.648Z,3.96
2023-01-17T03:03:58.923Z,3.94
2023-01-17T03:06:41.898Z,3.95
2023-01-17T03:09:10.882Z,3.94
2023-01-17T03:11:39.032Z,3.88
2023-01-17T03:14:07.141Z,3.60
2023-01-17T03:16:35.420Z,3.60
2023-01-17T03:19:04.354Z,3.55
2023-01-17T03:21:32.988Z,3.55
2023-01-17T03:24:01.097Z,3.53
2023-01-17T03:26:29.859Z,3.51
2023-01-17T03:28:58.784Z,3.52
2023-01-17T03:31:27.069Z,3.53
2023-01-17T03:33:55.348Z,3.57
2023-01-17T03:36:23.420Z,3.62
2023-01-17T03:38:52.052Z,3.68
2023-01-17T03:41:20.255Z,3.71
2023-01-17T03:43:48.362Z,3.74
2023-01-17T03:46:25.750Z,3.75
2023-01-17T03:48:54.023Z,3.77
2023-01-17T03:51:22.285Z,3.77
2023-01-17T03:53:51.118Z,3.78
2023-01-17T03:56:19.823Z,3.80
2023-01-17T03:58:48.110Z,3.82
2023-01-17T04:01:16.378Z,3.83
2023-01-17T04:03:44.943Z,3.82
2023-01-17T04:06:12.838Z,3.84
2023-01-17T04:08:40.688Z,3.83
2023-01-17T04:11:09.151Z,3.82
2023-01-17T04:13:37.361Z,3.79
2023-01-17T04:16:05.929Z,3.79
2023-01-17T04:18:34.472Z,3.75
2023-01-17T04:21:02.992Z,3.73
2023-01-17T04:23:31.599Z,3.71
2023-01-17T04:25:59.712Z,3.68
2023-01-17T04:28:27.874Z,3.65
2023-01-17T04:31:00.919Z,3.62
2023-01-17T04:33:29.505Z,3.60
2023-01-17T04:35:57.782Z,3.58
2023-01-17T04:38:25.978Z,3.54
2023-01-17T04:40:54.213Z,3.50
2023-01-17T04:43:22.868Z,3.49
2023-01-17T04:45:58.633Z,3.43
2023-01-17T04:48:27.719Z,3.40
2023-01-17T04:51:06.342Z,3.32
2023-01-17T04:53:34.313Z,3.32
2023-01-17T04:56:02.396Z,3.29
2023-01-17T04:58:31.044Z,3.28
2023-01-17T05:01:06.936Z,3.25
2023-01-17T05:03:35.440Z,3.26
2023-01-17T05:06:03.763Z,3.25
2023-01-17T05:08:31.763Z,3.24
2023-01-17T05:10:59.842Z,3.24
2023-01-17T05:13:27.869Z,3.24
2023-01-17T05:15:57.976Z,3.21
2023-01-17T05:18:26.621Z,3.21
2023-01-17T05:20:55.214Z,3.15
2023-01-17T05:23:23.292Z,3.12
2023-01-17T05:25:51.813Z,3.12
2023-01-17T05:28:20.412Z,3.14
2023-01-17T05:30:49.145Z,3.12
2023-01-17T05:33:17.503Z,3.12
2023-01-17T05:35:46.294Z,3.13
2023-01-17T17:25:35.836Z,2.30
2023-01-17T17:28:05.464Z,2.42
2023-01-17T17:30:33.793Z,2.61
2023-01-17T17:33:04.870Z,2.69
2023-01-17T17:35:35.995Z,2.74
2023-01-17T17:38:07.269Z,2.88
2023-01-17T17:40:36.594Z,3.00
2023-01-17T17:43:05.228Z,3.09
2023-01-17T17:45:33.765Z,3.20
2023-01-17T17:48:02.434Z,3.25
2023-01-17T17:50:31.121Z,3.33
2023-01-17T17:52:59.275Z,3.32
2023-01-17T17:55:29.280Z,3.37
2023-01-17T17:57:57.848Z,3.38
2023-01-17T18:00:26.249Z,3.42
2023-01-17T18:02:54.649Z,3.44
2023-01-17T18:05:22.824Z,3.52
2023-01-17T18:07:52.226Z,3.60
2023-01-17T18:10:20.581Z,3.68
2023-01-17T18:12:50.226Z,3.75
2023-01-17T18:15:19.546Z,3.80
2023-01-17T18:17:48.898Z,3.88
2023-01-17T18:20:17.475Z,3.93
2023-01-17T18:22:46.030Z,3.95
2023-01-17T18:25:14.738Z,3.95
2023-01-17T18:27:46.515Z,3.95
2023-01-17T18:30:14.957Z,3.95
2023-01-17T18:32:43.355Z,3.96
2023-01-17T18:35:12.108Z,3.97
2023-01-17T18:37:40.803Z,3.99
2023-01-17T18:40:10.090Z,4.00
2023-01-17T18:42:39.850Z,4.02
2023-01-17T18:45:08.564Z,4.04
2023-01-17T18:47:38.883Z,4.02
2023-01-17T18:50:07.771Z,4.01
2023-01-17T18:52:36.214Z,3.97
2023-01-17T18:55:05.591Z,3.94
2023-01-17T18:57:34.256Z,3.91
2023-01-17T19:00:03.169Z,3.88
2023-01-17T19:02:31.979Z,3.84
2023-01-17T19:05:02.586Z,3.85
2023-01-17T19:07:33.244Z,3.89
2023-01-17T19:10:02.106Z,3.89
2023-01-17T19:12:30.543Z,3.91
2023-01-17T19:14:58.742Z,3.94
2023-01-17T19:17:27.374Z,3.94
2023-01-17T19:19:57.101Z,3.96
2023-01-17T19:22:25.429Z,3.92
2023-01-17T19:24:54.092Z,3.91
2023-01-17T19:27:22.210Z,3.88
2023-01-17T19:29:50.891Z,3.84
2023-01-17T19:32:19.808Z,3.84
2023-01-17T19:34:48.129Z,3.80
2023-01-17T19:37:16.497Z,3.75
2023-01-17T19:39:45.932Z,3.70
2023-01-17T19:42:16.270Z,3.66
2023-01-17T19:44:44.773Z,3.65
2023-01-17T19:47:13.124Z,3.65
2023-01-17T19:49:43.158Z,3.61
2023-01-17T19:52:12.069Z,3.65
2023-01-17T19:54:41.773Z,3.52
2023-01-17T19:57:10.054Z,3.54
2023-01-17T19:59:38.374Z,3.54
2023-01-17T20:02:06.669Z,3.57
2023-01-17T20:04:35.119Z,3.56
2023-01-17T20:07:03.509Z,3.55
2023-01-17T20:09:32.233Z,3.60
2023-01-17T20:12:01.593Z,3.57
2023-01-17T20:14:30.281Z,3.62
2023-01-17T20:16:58.989Z,3.63
2023-01-17T20:19:27.839Z,3.66
2023-01-17T20:21:56.417Z,3.66
2023-01-17T20:24:24.553Z,3.67
2023-01-17T20:26:53.041Z,3.67
2023-01-17T20:29:21.383Z,3.70
2023-01-17T20:31:53.249Z,3.69
2023-01-17T20:34:21.799Z,3.70
2023-01-17T20:36:50.041Z,3.68
2023-01-17T20:39:19.832Z,3.69
2023-01-17T20:41:50.103Z,3.67
2023-01-17T20:44:19.986Z,3.56
2023-01-17T20:46:48.543Z,3.59
2023-01-17T20:49:19.818Z,3.60
2023-01-17T20:51:53.202Z,3.55
2023-01-17T20:54:27.180Z,3.52
2023-01-17T20:56:56.782Z,3.52
2023-01-17T20:59:25.057Z,3.45
2023-01-17T21:01:54.305Z,3.50
2023-01-17T21:04:26.397Z,3.53
2023-01-17T21:11:31.067Z,3.55
2023-01-17T21:17:48.129Z,3.60
2023-01-17T21:20:17.700Z,3.60
2023-01-17T21:22:45.872Z,3.59
2023-01-17T21:25:15.469Z,3.62
2023-01-17T21:27:44.443Z,3.59
2023-01-17T21:30:13.641Z,3.55
2023-01-17T21:36:48.407Z,3.58
2023-01-17T21:39:19.279Z,3.57
2023-01-17T21:41:49.890Z,3.51
2023-01-17T21:44:21.125Z,3.49
2023-01-17T21:46:56.256Z,3.51
2023-01-17T21:49:37.333Z,3.52
2023-01-17T21:52:05.407Z,3.57
2023-01-17T21:54:52.218Z,3.59
2023-01-17T22:00:27.143Z,3.60
2023-01-17T22:02:56.998Z,3.57
2023-01-17T22:05:28.651Z,3.58
2023-01-17T22:08:13.051Z,3.57
2023-01-17T22:10:45.586Z,3.53
2023-01-17T22:13:20.358Z,3.49
2023-01-17T22:15:59.237Z,3.51
2023-01-17T22:18:28.744Z,3.53
2023-01-17T22:20:57.943Z,3.51
2023-01-17T22:23:26.737Z,3.54
2023-01-17T22:26:01.666Z,3.43
2023-01-17T22:28:34.195Z,3.45
2023-01-17T22:31:21.307Z,3.44
2023-01-17T22:34:01.330Z,3.46
2023-01-17T22:36:32.004Z,3.42
2023-01-17T22:39:00.504Z,3.41
2023-01-17T22:41:32.055Z,3.39
2023-01-17T22:44:02.896Z,3.34
2023-01-17T22:46:33.398Z,3.33
2023-01-17T22:49:01.610Z,3.38
2023-01-17T22:51:30.207Z,3.38
2023-01-17T22:54:00.850Z,3.39
2023-01-17T22:56:32.349Z,3.33
2023-01-17T22:59:01.344Z,3.39
2023-01-17T23:01:32.931Z,3.32
2023-01-17T23:04:03.827Z,3.29
2023-01-17T23:06:37.762Z,3.28
2023-01-17T23:09:09.335Z,3.29
2023-01-17T23:11:44.210Z,3.32
2023-01-17T23:14:17.089Z,3.30
2023-01-17T23:17:05.613Z,3.29
2023-01-17T23:19:37.740Z,3.26
2023-01-17T23:22:20.776Z,3.28
2023-01-17T23:24:53.848Z,3.26
2023-01-17T23:27:51.003Z,3.27
2023-01-17T23:30:27.050Z,3.27
2023-01-17T23:32:59.127Z,3.24
2023-01-17T23:35:33.613Z,3.25
2023-01-17T23:38:21.013Z,3.23
2023-01-17T23:41:09.652Z,3.21
2023-01-17T23:43:38.418Z,3.21
2023-01-17T23:46:11.973Z,3.20
2023-01-17T23:48:40.277Z,3.19
2023-01-17T23:51:09.068Z,3.19
2023-01-17T23:53:39.154Z,3.21
2023-01-17T23:56:15.313Z,3.17
2023-01-17T23:58:43.468Z,3.14
